SAM042 KNUQ-KLSV
Flight info
| Callsign | SAM042 |
|---|---|
| Flight time | 1h 1m |
| Altitude | 33000 |
| Route | OSI2/32E NTELL Q158 TRTIS UNS SHEET/21L |
| Aircraft | B737/M-SDE2E3FGHIRWXY/LB1 |
Departure
| Time | 2026-04-24 06:39 |
|---|---|
| Airport | Moffett Federal Airfield (KNUQ) |
Arrival
| Time | 2026-04-24 07:40 |
|---|---|
| Airport | Nellis Air Force Base (KLSV) |
| Time | Latitude | Longitude | Altitude | Speed | Heading |
|---|---|---|---|---|---|
| 2026-04-24 06:15 | 37.41304 | -122.04214 | 27 ft | 0 kts | 248° |
| 2026-04-24 06:32 | 37.41304 | -122.04215 | 27 ft | 1 kts | 249° |
| 2026-04-24 06:33 | 37.41295 | -122.04245 | 28 ft | 0 kts | 252° |
| 2026-04-24 06:34 | 37.41292 | -122.04255 | 28 ft | 5 kts | 250° |
| 2026-04-24 06:34 | 37.41284 | -122.04282 | 29 ft | 0 kts | 248° |
| 2026-04-24 06:35 | 37.41275 | -122.04301 | 29 ft | 9 kts | 231° |
| 2026-04-24 06:35 | 37.41212 | -122.04338 | 30 ft | 10 kts | 172° |
| 2026-04-24 06:36 | 37.41137 | -122.04297 | 29 ft | 12 kts | 157° |
| 2026-04-24 06:36 | 37.41057 | -122.04255 | 31 ft | 13 kts | 157° |
| 2026-04-24 06:36 | 37.41001 | -122.04225 | 31 ft | 14 kts | 157° |
| 2026-04-24 06:36 | 37.40910 | -122.04177 | 32 ft | 14 kts | 157° |
| 2026-04-24 06:37 | 37.40794 | -122.04117 | 34 ft | 13 kts | 157° |
| 2026-04-24 06:37 | 37.40712 | -122.04074 | 37 ft | 13 kts | 159° |
| 2026-04-24 06:37 | 37.40634 | -122.04094 | 37 ft | 12 kts | 232° |
| 2026-04-24 06:37 | 37.40596 | -122.04190 | 35 ft | 12 kts | 247° |
| 2026-04-24 06:38 | 37.40590 | -122.04258 | 33 ft | 12 kts | 288° |
| 2026-04-24 06:38 | 37.40656 | -122.04319 | 32 ft | 13 kts | 335° |
| 2026-04-24 06:38 | 37.40787 | -122.04391 | 29 ft | 51 kts | 337° |
| 2026-04-24 06:38 | 37.41425 | -122.04726 | 33 ft | 144 kts | 337° |
| 2026-04-24 06:39 | 37.42532 | -122.05289 | 578 ft | 189 kts | 340° |
| 2026-04-24 06:39 | 37.43878 | -122.05946 | 1476 ft | 216 kts | 338° |
| 2026-04-24 06:39 | 37.45277 | -122.06716 | 2640 ft | 222 kts | 332° |
| 2026-04-24 06:39 | 37.46620 | -122.07656 | 3624 ft | 224 kts | 331° |
| 2026-04-24 06:40 | 37.48047 | -122.08618 | 4164 ft | 238 kts | 332° |
| 2026-04-24 06:40 | 37.49536 | -122.09584 | 4429 ft | 244 kts | 333° |
| 2026-04-24 06:40 | 37.50915 | -122.10845 | 4202 ft | 250 kts | 310° |
| 2026-04-24 06:40 | 37.51761 | -122.12759 | 3552 ft | 258 kts | 286° |
| 2026-04-24 06:41 | 37.51875 | -122.15058 | 2829 ft | 265 kts | 262° |
| 2026-04-24 06:41 | 37.51294 | -122.17201 | 2428 ft | 260 kts | 242° |
| 2026-04-24 06:41 | 37.50231 | -122.18990 | 2076 ft | 252 kts | 225° |
| 2026-04-24 06:41 | 37.48904 | -122.20299 | 2093 ft | 230 kts | 216° |
| 2026-04-24 06:42 | 37.47573 | -122.21318 | 2149 ft | 230 kts | 211° |
| 2026-04-24 06:42 | 37.46114 | -122.22287 | 2722 ft | 237 kts | 211° |
| 2026-04-24 06:42 | 37.44764 | -122.23203 | 4315 ft | 209 kts | 205° |
| 2026-04-24 06:42 | 37.43385 | -122.23577 | 5452 ft | 203 kts | 173° |
| 2026-04-24 06:43 | 37.41943 | -122.23325 | 6117 ft | 220 kts | 179° |
| 2026-04-24 06:43 | 37.40300 | -122.23506 | 6467 ft | 247 kts | 189° |
| 2026-04-24 06:43 | 37.38652 | -122.23810 | 7745 ft | 229 kts | 182° |
| 2026-04-24 06:43 | 37.37008 | -122.23917 | 8422 ft | 246 kts | 182° |
| 2026-04-24 06:44 | 37.35288 | -122.23977 | 9231 ft | 252 kts | 183° |
| 2026-04-24 06:44 | 37.33573 | -122.24087 | 10381 ft | 237 kts | 181° |
| 2026-04-24 06:44 | 37.31926 | -122.24120 | 11296 ft | 238 kts | 178° |
| 2026-04-24 06:44 | 37.30231 | -122.24147 | 11899 ft | 253 kts | 182° |
| 2026-04-24 06:45 | 37.28377 | -122.24306 | 12173 ft | 279 kts | 184° |
| 2026-04-24 06:45 | 37.26459 | -122.24532 | 13228 ft | 265 kts | 176° |
| 2026-04-24 06:45 | 37.24856 | -122.23871 | 14558 ft | 248 kts | 144° |
| 2026-04-24 06:45 | 37.23604 | -122.22195 | 14597 ft | 280 kts | 120° |
| 2026-04-24 06:46 | 37.22856 | -122.19868 | 14912 ft | 303 kts | 106° |
| 2026-04-24 06:46 | 37.22409 | -122.17193 | 15277 ft | 323 kts | 98° |
| 2026-04-24 06:46 | 37.22142 | -122.14349 | 15934 ft | 331 kts | 95° |
| 2026-04-24 06:46 | 37.21961 | -122.11486 | 16952 ft | 328 kts | 94° |
| 2026-04-24 06:47 | 37.21816 | -122.08609 | 17747 ft | 333 kts | 94° |
| 2026-04-24 06:47 | 37.21673 | -122.05635 | 18007 ft | 355 kts | 94° |
| 2026-04-24 06:47 | 37.21526 | -122.02499 | 18131 ft | 378 kts | 94° |
| 2026-04-24 06:47 | 37.21362 | -121.99174 | 18758 ft | 385 kts | 94° |
| 2026-04-24 06:48 | 37.21199 | -121.95780 | 18887 ft | 392 kts | 94° |
| 2026-04-24 06:48 | 37.21037 | -121.92370 | 19034 ft | 390 kts | 94° |
| 2026-04-24 06:48 | 37.20869 | -121.88975 | 19719 ft | 388 kts | 94° |
| 2026-04-24 06:48 | 37.20704 | -121.85644 | 20908 ft | 376 kts | 94° |
| 2026-04-24 06:49 | 37.20534 | -121.82374 | 21767 ft | 378 kts | 94° |
| 2026-04-24 06:49 | 37.20357 | -121.79026 | 22032 ft | 395 kts | 94° |
| 2026-04-24 06:49 | 37.20169 | -121.75499 | 22071 ft | 416 kts | 94° |
| 2026-04-24 06:49 | 37.19969 | -121.71826 | 22401 ft | 426 kts | 94° |
| 2026-04-24 06:50 | 37.19773 | -121.68179 | 23227 ft | 421 kts | 94° |
| 2026-04-24 06:50 | 37.19584 | -121.64553 | 24268 ft | 413 kts | 94° |
| 2026-04-24 06:50 | 37.19457 | -121.62072 | 24620 ft | 418 kts | 94° |
| 2026-04-24 06:51 | 37.19266 | -121.58404 | 24815 ft | 432 kts | 95° |
| 2026-04-24 06:52 | 37.19034 | -121.54611 | 25266 ft | 438 kts | 95° |
| 2026-04-24 06:52 | 37.18813 | -121.50837 | 26091 ft | 433 kts | 95° |
| 2026-04-24 06:52 | 37.18780 | -121.50263 | 26207 ft | 432 kts | 95° |
| 2026-04-24 06:53 | 37.18728 | -121.49323 | 26400 ft | 431 kts | 95° |
| 2026-04-24 06:53 | 37.18483 | -121.45562 | 26981 ft | 434 kts | 97° |
| 2026-04-24 06:53 | 37.18193 | -121.41767 | 27388 ft | 440 kts | 96° |
| 2026-04-24 06:54 | 37.17945 | -121.37910 | 27775 ft | 446 kts | 95° |
| 2026-04-24 06:54 | 37.17718 | -121.34015 | 28212 ft | 451 kts | 95° |
| 2026-04-24 06:54 | 37.17505 | -121.30129 | 28696 ft | 453 kts | 95° |
| 2026-04-24 06:54 | 37.17276 | -121.26183 | 29161 ft | 455 kts | 96° |
| 2026-04-24 06:55 | 37.16954 | -121.22207 | 29439 ft | 463 kts | 98° |
| 2026-04-24 06:55 | 37.16459 | -121.18192 | 29674 ft | 469 kts | 103° |
| 2026-04-24 06:55 | 37.15820 | -121.14140 | 29936 ft | 476 kts | 102° |
| 2026-04-24 06:55 | 37.15235 | -121.10046 | 30347 ft | 478 kts | 101° |
| 2026-04-24 06:56 | 37.14644 | -121.05944 | 30791 ft | 478 kts | 103° |
| 2026-04-24 06:56 | 37.13815 | -121.01902 | 31222 ft | 477 kts | 108° |
| 2026-04-24 06:56 | 37.12817 | -120.97990 | 31601 ft | 477 kts | 112° |
| 2026-04-24 06:56 | 37.11633 | -120.94090 | 31855 ft | 481 kts | 114° |
| 2026-04-24 06:57 | 37.10336 | -120.90203 | 32018 ft | 485 kts | 116° |
| 2026-04-24 06:57 | 37.07789 | -120.82365 | 32050 ft | 486 kts | 115° |
| 2026-04-24 06:57 | 37.06479 | -120.78455 | 31796 ft | 483 kts | 115° |
| 2026-04-24 06:58 | 37.05235 | -120.74567 | 31609 ft | 481 kts | 113° |
| 2026-04-24 06:58 | 37.03244 | -120.66670 | 32139 ft | 467 kts | 106° |
| 2026-04-24 06:58 | 37.02426 | -120.62782 | 32753 ft | 462 kts | 107° |
| 2026-04-24 06:59 | 37.01572 | -120.58878 | 32919 ft | 469 kts | 108° |
| 2026-04-24 06:59 | 37.00660 | -120.54913 | 32838 ft | 481 kts | 108° |
| 2026-04-24 06:59 | 36.99695 | -120.50835 | 32648 ft | 495 kts | 109° |
| 2026-04-24 06:59 | 36.98712 | -120.46710 | 32954 ft | 496 kts | 109° |
| 2026-04-24 07:00 | 36.97742 | -120.42558 | 33110 ft | 499 kts | 107° |
| 2026-04-24 07:00 | 36.95877 | -120.34182 | 33202 ft | 494 kts | 108° |
| 2026-04-24 07:00 | 36.94959 | -120.30065 | 33340 ft | 488 kts | 107° |
| 2026-04-24 07:01 | 36.94064 | -120.25984 | 33487 ft | 485 kts | 108° |
| 2026-04-24 07:01 | 36.92268 | -120.17803 | 33536 ft | 491 kts | 107° |
| 2026-04-24 07:01 | 36.91354 | -120.13658 | 33397 ft | 498 kts | 108° |
| 2026-04-24 07:02 | 36.90397 | -120.09481 | 33379 ft | 502 kts | 107° |
| 2026-04-24 07:02 | 36.89548 | -120.05216 | 33256 ft | 509 kts | 103° |
| 2026-04-24 07:02 | 36.88908 | -120.00898 | 33163 ft | 514 kts | 101° |
| 2026-04-24 07:03 | 36.87943 | -119.92012 | 33185 ft | 515 kts | 98° |
| 2026-04-24 07:03 | 36.87066 | -119.83128 | 33028 ft | 517 kts | 98° |
| 2026-04-24 07:04 | 36.86194 | -119.74263 | 33130 ft | 513 kts | 97° |
| 2026-04-24 07:04 | 36.85762 | -119.69827 | 32999 ft | 516 kts | 97° |
| 2026-04-24 07:04 | 36.85329 | -119.65390 | 32983 ft | 515 kts | 98° |
| 2026-04-24 07:05 | 36.84454 | -119.56488 | 32898 ft | 515 kts | 98° |
| 2026-04-24 07:05 | 36.84022 | -119.52089 | 33275 ft | 506 kts | 97° |
| 2026-04-24 07:05 | 36.83615 | -119.47736 | 33308 ft | 506 kts | 97° |
| 2026-04-24 07:05 | 36.83232 | -119.43342 | 33009 ft | 513 kts | 97° |
| 2026-04-24 07:06 | 36.82826 | -119.38867 | 32665 ft | 521 kts | 97° |
| 2026-04-24 07:06 | 36.82436 | -119.34465 | 32929 ft | 513 kts | 97° |
| 2026-04-24 07:06 | 36.82033 | -119.30059 | 33109 ft | 509 kts | 97° |
| 2026-04-24 07:07 | 36.81192 | -119.21228 | 32797 ft | 516 kts | 97° |
| 2026-04-24 07:07 | 36.79891 | -119.07985 | 33126 ft | 508 kts | 98° |
| 2026-04-24 07:08 | 36.79459 | -119.03581 | 32807 ft | 515 kts | 97° |
| 2026-04-24 07:08 | 36.79047 | -118.99140 | 32782 ft | 516 kts | 97° |
| 2026-04-24 07:08 | 36.78202 | -118.90334 | 32953 ft | 511 kts | 97° |
| 2026-04-24 07:09 | 36.77346 | -118.81478 | 32705 ft | 517 kts | 97° |
| 2026-04-24 07:09 | 36.76537 | -118.72531 | 32543 ft | 520 kts | 97° |
| 2026-04-24 07:10 | 36.75681 | -118.63574 | 32384 ft | 523 kts | 97° |
| 2026-04-24 07:10 | 36.74792 | -118.54558 | 32284 ft | 523 kts | 98° |
| 2026-04-24 07:11 | 36.74346 | -118.50070 | 32421 ft | 520 kts | 97° |
| 2026-04-24 07:11 | 36.73906 | -118.45606 | 32519 ft | 517 kts | 98° |
| 2026-04-24 07:11 | 36.73029 | -118.36767 | 32489 ft | 517 kts | 98° |
| 2026-04-24 07:12 | 36.72139 | -118.27859 | 32487 ft | 517 kts | 98° |
| 2026-04-24 07:12 | 36.71252 | -118.19000 | 32544 ft | 515 kts | 98° |
| 2026-04-24 07:13 | 36.70361 | -118.10133 | 32495 ft | 515 kts | 98° |
| 2026-04-24 07:13 | 36.69483 | -118.01250 | 32452 ft | 516 kts | 98° |
| 2026-04-24 07:14 | 36.68608 | -117.92372 | 32498 ft | 516 kts | 98° |
| 2026-04-24 07:14 | 36.67745 | -117.83487 | 32402 ft | 517 kts | 98° |
| 2026-04-24 07:15 | 36.66872 | -117.74716 | 32997 ft | 499 kts | 98° |
| 2026-04-24 07:15 | 36.66017 | -117.66198 | 32884 ft | 503 kts | 98° |
| 2026-04-24 07:16 | 36.65167 | -117.57559 | 33159 ft | 497 kts | 98° |
| 2026-04-24 07:16 | 36.64751 | -117.53318 | 33461 ft | 490 kts | 98° |
| 2026-04-24 07:16 | 36.64343 | -117.49113 | 33591 ft | 488 kts | 98° |
| 2026-04-24 07:17 | 36.63942 | -117.44900 | 33475 ft | 492 kts | 97° |
| 2026-04-24 07:17 | 36.63544 | -117.40648 | 33304 ft | 497 kts | 97° |
| 2026-04-24 07:17 | 36.62794 | -117.32068 | 33118 ft | 501 kts | 96° |
| 2026-04-24 07:18 | 36.62433 | -117.27714 | 32792 ft | 511 kts | 97° |
| 2026-04-24 07:18 | 36.62060 | -117.23294 | 32899 ft | 508 kts | 97° |
| 2026-04-24 07:18 | 36.61686 | -117.18957 | 33140 ft | 503 kts | 96° |
| 2026-04-24 07:18 | 36.61344 | -117.14585 | 32945 ft | 509 kts | 96° |
| 2026-04-24 07:19 | 36.61005 | -117.10196 | 32818 ft | 512 kts | 96° |
| 2026-04-24 07:19 | 36.60670 | -117.05766 | 32721 ft | 513 kts | 96° |
| 2026-04-24 07:19 | 36.60285 | -117.01368 | 32616 ft | 510 kts | 97° |
| 2026-04-24 07:19 | 36.59865 | -116.96990 | 32462 ft | 509 kts | 98° |
| 2026-04-24 07:20 | 36.59429 | -116.92621 | 32271 ft | 509 kts | 98° |
| 2026-04-24 07:20 | 36.58987 | -116.88248 | 32069 ft | 510 kts | 98° |
| 2026-04-24 07:20 | 36.58543 | -116.83875 | 31367 ft | 522 kts | 98° |
| 2026-04-24 07:20 | 36.58086 | -116.79358 | 30982 ft | 525 kts | 97° |
| 2026-04-24 07:21 | 36.57628 | -116.74863 | 30756 ft | 524 kts | 97° |
| 2026-04-24 07:21 | 36.57171 | -116.70357 | 30380 ft | 526 kts | 97° |
| 2026-04-24 07:21 | 36.56713 | -116.65832 | 30080 ft | 525 kts | 97° |
| 2026-04-24 07:21 | 36.56267 | -116.61336 | 29667 ft | 524 kts | 97° |
| 2026-04-24 07:22 | 36.55821 | -116.56839 | 29186 ft | 525 kts | 97° |
| 2026-04-24 07:22 | 36.55389 | -116.52351 | 28473 ft | 531 kts | 97° |
| 2026-04-24 07:22 | 36.54951 | -116.47794 | 28015 ft | 530 kts | 97° |
| 2026-04-24 07:22 | 36.54522 | -116.43227 | 27371 ft | 532 kts | 96° |
| 2026-04-24 07:23 | 36.54093 | -116.38613 | 26891 ft | 530 kts | 96° |
| 2026-04-24 07:23 | 36.53677 | -116.34106 | 26106 ft | 534 kts | 96° |
| 2026-04-24 07:23 | 36.53282 | -116.29513 | 25807 ft | 527 kts | 96° |
| 2026-04-24 07:23 | 36.52913 | -116.25019 | 25567 ft | 520 kts | 95° |
| 2026-04-24 07:24 | 36.52542 | -116.20569 | 25285 ft | 515 kts | 96° |
| 2026-04-24 07:24 | 36.52160 | -116.16147 | 24712 ft | 516 kts | 95° |
| 2026-04-24 07:24 | 36.51783 | -116.11680 | 24105 ft | 519 kts | 96° |
| 2026-04-24 07:24 | 36.51386 | -116.07305 | 24446 ft | 499 kts | 96° |
| 2026-04-24 07:25 | 36.51129 | -116.04438 | 23809 ft | 506 kts | 96° |
| 2026-04-24 07:25 | 36.50734 | -116.00040 | 23049 ft | 513 kts | 96° |
| 2026-04-24 07:25 | 36.50327 | -115.95714 | 22882 ft | 495 kts | 96° |
| 2026-04-24 07:25 | 36.49831 | -115.90177 | 22377 ft | 480 kts | 95° |
| 2026-04-24 07:26 | 36.49607 | -115.87397 | 21831 ft | 478 kts | 95° |
| 2026-04-24 07:26 | 36.49311 | -115.83335 | 21040 ft | 476 kts | 94° |
| 2026-04-24 07:26 | 36.49045 | -115.79252 | 20263 ft | 469 kts | 94° |
| 2026-04-24 07:26 | 36.48748 | -115.73974 | 19802 ft | 446 kts | 92° |
| 2026-04-24 07:27 | 36.48660 | -115.71437 | 19452 ft | 439 kts | 91° |
| 2026-04-24 07:27 | 36.48534 | -115.67709 | 19077 ft | 426 kts | 92° |
| 2026-04-24 07:27 | 36.48374 | -115.64080 | 18567 ft | 413 kts | 92° |
| 2026-04-24 07:27 | 36.48229 | -115.60561 | 18089 ft | 400 kts | 92° |
| 2026-04-24 07:28 | 36.48099 | -115.57172 | 17655 ft | 385 kts | 92° |
| 2026-04-24 07:28 | 36.47980 | -115.53892 | 17256 ft | 373 kts | 92° |
| 2026-04-24 07:28 | 36.47834 | -115.50758 | 17130 ft | 356 kts | 93° |
| 2026-04-24 07:28 | 36.47651 | -115.47712 | 16758 ft | 353 kts | 94° |
| 2026-04-24 07:29 | 36.47446 | -115.44650 | 16107 ft | 359 kts | 94° |
| 2026-04-24 07:29 | 36.47233 | -115.41606 | 15723 ft | 356 kts | 94° |
| 2026-04-24 07:29 | 36.47016 | -115.38576 | 15497 ft | 348 kts | 94° |
| 2026-04-24 07:29 | 36.46798 | -115.35605 | 15168 ft | 344 kts | 95° |
| 2026-04-24 07:30 | 36.46576 | -115.32654 | 14770 ft | 342 kts | 94° |
| 2026-04-24 07:30 | 36.46431 | -115.29702 | 14172 ft | 341 kts | 90° |
| 2026-04-24 07:30 | 36.46430 | -115.26800 | 13761 ft | 332 kts | 89° |
| 2026-04-24 07:30 | 36.46453 | -115.23944 | 13150 ft | 330 kts | 89° |
| 2026-04-24 07:31 | 36.46482 | -115.21090 | 12469 ft | 330 kts | 88° |
| 2026-04-24 07:31 | 36.46541 | -115.18243 | 11844 ft | 328 kts | 88° |
| 2026-04-24 07:31 | 36.46697 | -115.15439 | 11313 ft | 322 kts | 84° |
| 2026-04-24 07:31 | 36.46907 | -115.12694 | 10771 ft | 317 kts | 84° |
| 2026-04-24 07:32 | 36.47113 | -115.09970 | 10069 ft | 317 kts | 84° |
| 2026-04-24 07:32 | 36.47340 | -115.07214 | 9359 ft | 319 kts | 83° |
| 2026-04-24 07:32 | 36.47589 | -115.04558 | 8952 ft | 309 kts | 83° |
| 2026-04-24 07:32 | 36.47866 | -115.01927 | 8386 ft | 306 kts | 79° |
| 2026-04-24 07:33 | 36.48253 | -114.99368 | 8021 ft | 296 kts | 78° |
| 2026-04-24 07:33 | 36.48671 | -114.96895 | 7595 ft | 289 kts | 78° |
| 2026-04-24 07:33 | 36.49069 | -114.94455 | 7000 ft | 288 kts | 78° |
| 2026-04-24 07:33 | 36.49473 | -114.91992 | 6299 ft | 292 kts | 79° |
| 2026-04-24 07:34 | 36.49703 | -114.89511 | 5927 ft | 282 kts | 95° |
| 2026-04-24 07:34 | 36.49025 | -114.87426 | 6136 ft | 249 kts | 128° |
| 2026-04-24 07:34 | 36.47816 | -114.86001 | 5973 ft | 233 kts | 147° |
| 2026-04-24 07:34 | 36.46410 | -114.85113 | 5760 ft | 221 kts | 159° |
| 2026-04-24 07:35 | 36.44985 | -114.84552 | 5754 ft | 210 kts | 166° |
| 2026-04-24 07:35 | 36.43592 | -114.84156 | 5831 ft | 202 kts | 171° |
| 2026-04-24 07:35 | 36.42240 | -114.83932 | 5908 ft | 196 kts | 180° |
| 2026-04-24 07:35 | 36.40950 | -114.84273 | 6002 ft | 201 kts | 210° |
| 2026-04-24 07:36 | 36.39733 | -114.85237 | 5900 ft | 213 kts | 217° |
| 2026-04-24 07:36 | 36.38552 | -114.86427 | 5703 ft | 222 kts | 220° |
| 2026-04-24 07:36 | 36.37422 | -114.87680 | 5538 ft | 216 kts | 224° |
| 2026-04-24 07:36 | 36.36375 | -114.88972 | 5362 ft | 206 kts | 225° |
| 2026-04-24 07:37 | 36.35398 | -114.90213 | 5084 ft | 197 kts | 224° |
| 2026-04-24 07:37 | 36.34415 | -114.91388 | 4700 ft | 196 kts | 222° |
| 2026-04-24 07:37 | 36.33389 | -114.92507 | 4338 ft | 196 kts | 219° |
| 2026-04-24 07:37 | 36.32351 | -114.93584 | 3986 ft | 192 kts | 219° |
| 2026-04-24 07:38 | 36.31338 | -114.94641 | 3622 ft | 192 kts | 220° |
| 2026-04-24 07:38 | 36.30371 | -114.95705 | 3448 ft | 179 kts | 221° |
| 2026-04-24 07:38 | 36.29531 | -114.96702 | 3330 ft | 159 kts | 224° |
| 2026-04-24 07:38 | 36.28714 | -114.97636 | 3052 ft | 160 kts | 221° |
| 2026-04-24 07:39 | 36.27874 | -114.98531 | 2846 ft | 159 kts | 221° |
| 2026-04-24 07:39 | 36.27049 | -114.99464 | 2608 ft | 162 kts | 223° |
| 2026-04-24 07:39 | 36.26213 | -115.00396 | 2360 ft | 161 kts | 220° |
| 2026-04-24 07:39 | 36.25374 | -115.01288 | 2127 ft | 155 kts | 220° |
| 2026-04-24 07:40 | 36.24585 | -115.02148 | 1947 ft | 152 kts | 221° |
| 2026-04-24 07:40 | 36.23835 | -115.02957 | 1862 ft | 126 kts | 223° |
| 2026-04-24 07:40 | 36.23446 | -115.03380 | 1855 ft | 58 kts | 220° |
| 2026-04-24 07:40 | 36.23390 | -115.03441 | 1856 ft | 2 kts | 223° |
| 2026-04-24 07:41 | 36.23339 | -115.03500 | 1854 ft | 18 kts | 222° |
| 2026-04-24 07:41 | 36.23284 | -115.03636 | 1853 ft | 19 kts | 290° |
| 2026-04-24 07:41 | 36.23372 | -115.03764 | 1850 ft | 22 kts | 311° |
| 2026-04-24 07:41 | 36.23462 | -115.03901 | 1850 ft | 15 kts | 304° |
| 2026-04-24 07:42 | 36.23538 | -115.03970 | 1848 ft | 14 kts | 7° |
| 2026-04-24 07:42 | 36.23606 | -115.03967 | 1848 ft | 8 kts | 321° |
| 2026-04-24 07:42 | 36.23647 | -115.04025 | 1849 ft | 9 kts | 311° |
| 2026-04-24 07:42 | 36.23662 | -115.04047 | 1850 ft | 0 kts | 310° |